Time;durP1;ratioP1;P1;durP2;ratioP2;P2;SDS_P1;SDS_P2;PMS_P1;PMS_P2;Temp;Humidity;BMP_temperature;BMP_pressure;BME280_temperature;BME280_humidity;BME280_pressure;Samples;Min_cycle;Max_cycle;Signal;HPM_P1;HPM_P2
2022/01/07 00:00:34;;;;;;;7.18;5.10;;;;;;;;;;5015959;28;20205;-81
2022/01/07 00:03:02;;;;;;;6.10;4.80;;;;;;;;;;5016418;28;20257;-81
2022/01/07 00:05:31;;;;;;;5.80;4.50;;;;;;;;;;5016349;28;20587;-80
2022/01/07 00:07:59;;;;;;;10.52;5.22;;;;;;;;;;5016382;28;20726;-81
2022/01/07 00:10:26;;;;;;;7.82;4.07;;;;;;;;;;5016263;28;20199;-81
2022/01/07 00:12:54;;;;;;;8.05;5.18;;;;;;;;;;5016438;28;20592;-81
2022/01/07 00:15:22;;;;;;;7.20;4.20;;;;;;;;;;5016421;28;20551;-80
2022/01/07 00:17:50;;;;;;;7.90;4.80;;;;;;;;;;5016198;28;20226;-81
2022/01/07 00:20:19;;;;;;;3.90;3.42;;;;;;;;;;5016383;28;20188;-81
2022/01/07 00:22:50;;;;;;;2.95;2.70;;;;;;;;;;5016461;28;20195;-81
2022/01/07 00:25:20;;;;;;;9.52;5.07;;;;;;;;;;5016130;28;20217;-80
2022/01/07 00:27:48;;;;;;;6.05;3.55;;;;;;;;;;5016041;28;20229;-80
2022/01/07 00:30:17;;;;;;;5.07;3.83;;;;;;;;;;5015760;28;20195;-81
2022/01/07 00:32:44;;;;;;;5.72;4.07;;;;;;;;;;5016073;28;20199;-81
2022/01/07 00:35:13;;;;;;;6.78;4.45;;;;;;;;;;5015374;28;20200;-81
2022/01/07 00:37:41;;;;;;;4.75;4.30;;;;;;;;;;5015637;28;20231;-80
2022/01/07 00:40:13;;;;;;;7.53;4.28;;;;;;;;;;5015182;28;20206;-81
2022/01/07 00:42:41;;;;;;;8.77;4.97;;;;;;;;;;5015950;28;20187;-81
2022/01/07 00:45:10;;;;;;;10.82;4.90;;;;;;;;;;5015993;28;20183;-81
2022/01/07 00:47:37;;;;;;;9.43;5.78;;;;;;;;;;5015197;28;20226;-81
2022/01/07 00:50:06;;;;;;;7.68;4.65;;;;;;;;;;5015372;28;20581;-82
2022/01/07 00:52:44;;;;;;;7.40;5.43;;;;;;;;;;5015341;28;20551;-81
2022/01/07 00:55:13;;;;;;;4.95;4.45;;;;;;;;;;5015365;28;20202;-81
2022/01/07 00:57:41;;;;;;;9.77;4.20;;;;;;;;;;5015146;28;20247;-80
2022/01/07 01:00:12;;;;;;;9.52;5.90;;;;;;;;;;5014875;28;20648;-80
2022/01/07 01:02:39;;;;;;;5.72;4.57;;;;;;;;;;5015085;28;20206;-81
2022/01/07 01:05:10;;;;;;;3.97;3.20;;;;;;;;;;5015138;28;20651;-81
2022/01/07 01:07:50;;;;;;;7.25;4.50;;;;;;;;;;5015040;28;20217;-81
2022/01/07 01:10:22;;;;;;;5.32;3.53;;;;;;;;;;5014659;28;20209;-81
2022/01/07 01:12:50;;;;;;;6.35;3.80;;;;;;;;;;5014572;28;20227;-81
2022/01/07 01:15:22;;;;;;;4.65;3.60;;;;;;;;;;5014834;28;20210;-81
2022/01/07 01:17:50;;;;;;;4.20;3.80;;;;;;;;;;5009112;28;20228;-81
2022/01/07 01:20:19;;;;;;;4.78;4.22;;;;;;;;;;4995655;28;20183;-81
2022/01/07 01:22:50;;;;;;;4.38;2.95;;;;;;;;;;4995267;28;20199;-81
2022/01/07 01:28:11;;;;;;;5.00;3.33;;;;;;;;;;5009679;28;20215;-81
2022/01/07 01:30:49;;;;;;;4.28;3.83;;;;;;;;;;5014491;28;20183;-81
2022/01/07 01:33:27;;;;;;;4.28;3.47;;;;;;;;;;5014686;28;20640;-81
2022/01/07 01:36:00;;;;;;;9.23;5.28;;;;;;;;;;5014661;28;20278;-81
2022/01/07 01:38:35;;;;;;;6.88;4.32;;;;;;;;;;5015157;28;20241;-81
2022/01/07 01:41:04;;;;;;;7.32;3.55;;;;;;;;;;5014686;28;20270;-82
2022/01/07 01:43:32;;;;;;;8.25;3.40;;;;;;;;;;5014511;28;20274;-81
2022/01/07 01:45:59;;;;;;;6.93;4.38;;;;;;;;;;5014719;28;20658;-81
2022/01/07 01:48:27;;;;;;;14.15;5.57;;;;;;;;;;5014140;28;20219;-81
2022/01/07 01:50:57;;;;;;;9.00;4.53;;;;;;;;;;5014396;28;20685;-81
2022/01/07 01:53:25;;;;;;;7.38;5.45;;;;;;;;;;5014462;28;20214;-81
2022/01/07 01:55:54;;;;;;;8.98;4.80;;;;;;;;;;5015138;28;20202;-81
2022/01/07 01:58:23;;;;;;;10.27;5.72;;;;;;;;;;5014931;28;20230;-81
2022/01/07 02:00:50;;;;;;;11.57;5.88;;;;;;;;;;5014357;28;20203;-81
2022/01/07 02:03:18;;;;;;;9.18;6.43;;;;;;;;;;5014681;28;20203;-81
2022/01/07 02:05:46;;;;;;;9.02;5.22;;;;;;;;;;5009055;28;20203;-81
2022/01/07 02:08:14;;;;;;;8.30;5.10;;;;;;;;;;5001282;28;20214;-82
2022/01/07 02:10:42;;;;;;;7.38;5.25;;;;;;;;;;4998590;28;20206;-81
2022/01/07 02:13:09;;;;;;;10.38;6.82;;;;;;;;;;5013621;28;20309;-80
2022/01/07 02:15:38;;;;;;;6.05;4.72;;;;;;;;;;5014293;28;20693;-81
2022/01/07 02:18:24;;;;;;;10.82;5.95;;;;;;;;;;5013527;28;20223;-81
2022/01/07 02:20:53;;;;;;;10.45;5.72;;;;;;;;;;5013416;28;20265;-81
2022/01/07 02:23:26;;;;;;;5.53;4.93;;;;;;;;;;5013408;28;20199;-81
2022/01/07 02:25:55;;;;;;;7.35;5.28;;;;;;;;;;5013540;28;20202;-81
2022/01/07 02:28:23;;;;;;;12.73;6.15;;;;;;;;;;5014291;28;20249;-81
2022/01/07 02:30:51;;;;;;;7.03;5.07;;;;;;;;;;5014157;28;20211;-81
2022/01/07 02:33:18;;;;;;;9.65;5.30;;;;;;;;;;5014241;28;20207;-81
2022/01/07 02:35:46;;;;;;;7.15;5.03;;;;;;;;;;5014200;28;20547;-81
2022/01/07 02:38:17;;;;;;;7.45;5.55;;;;;;;;;;5013084;28;20211;-81
2022/01/07 02:40:45;;;;;;;9.27;5.57;;;;;;;;;;5013765;28;20190;-81
2022/01/07 02:43:13;;;;;;;8.18;5.68;;;;;;;;;;5014006;28;20203;-81
2022/01/07 02:45:41;;;;;;;7.03;5.30;;;;;;;;;;5013815;28;20226;-81
2022/01/07 02:48:08;;;;;;;9.10;5.28;;;;;;;;;;5013543;28;20215;-81
2022/01/07 02:50:38;;;;;;;5.95;5.30;;;;;;;;;;5013717;28;20199;-82
2022/01/07 02:53:09;;;;;;;7.35;5.53;;;;;;;;;;5014415;28;20218;-82
2022/01/07 02:55:39;;;;;;;10.00;7.22;;;;;;;;;;5017574;28;20230;-81
2022/01/07 02:58:10;;;;;;;11.05;6.53;;;;;;;;;;5017863;28;20231;-82
2022/01/07 03:00:38;;;;;;;10.48;6.00;;;;;;;;;;4999889;28;20230;-81
2022/01/07 03:03:09;;;;;;;8.77;5.32;;;;;;;;;;5017236;28;20207;-81
2022/01/07 03:05:39;;;;;;;10.70;5.32;;;;;;;;;;5016536;28;20221;-81
2022/01/07 03:08:07;;;;;;;5.47;4.47;;;;;;;;;;5017502;28;20302;-81
2022/01/07 03:10:34;;;;;;;5.65;4.03;;;;;;;;;;5017123;28;20690;-82
2022/01/07 03:13:05;;;;;;;4.05;3.65;;;;;;;;;;5016659;28;20219;-81
2022/01/07 03:15:37;;;;;;;7.18;5.13;;;;;;;;;;4997455;28;20195;-81
2022/01/07 03:18:06;;;;;;;7.13;5.45;;;;;;;;;;5001166;28;20257;-81
2022/01/07 03:20:38;;;;;;;11.57;6.38;;;;;;;;;;5017504;28;20233;-81
2022/01/07 03:23:07;;;;;;;6.57;5.00;;;;;;;;;;5017091;28;20195;-80
2022/01/07 03:25:35;;;;;;;7.93;6.07;;;;;;;;;;5016868;28;20203;-81
2022/01/07 03:28:05;;;;;;;12.18;7.25;;;;;;;;;;5014262;28;20242;-80
2022/01/07 03:30:33;;;;;;;10.25;6.55;;;;;;;;;;5015257;28;20195;-80
2022/01/07 03:33:00;;;;;;;7.78;6.47;;;;;;;;;;5015663;28;20286;-80
2022/01/07 03:35:28;;;;;;;14.13;7.97;;;;;;;;;;5016366;28;20217;-80
2022/01/07 03:37:55;;;;;;;11.60;7.20;;;;;;;;;;5016316;28;20214;-80
2022/01/07 03:40:23;;;;;;;9.52;7.85;;;;;;;;;;5016273;28;20229;-81
2022/01/07 03:42:52;;;;;;;10.55;6.90;;;;;;;;;;5015557;28;20217;-81
2022/01/07 03:45:22;;;;;;;8.50;6.72;;;;;;;;;;5016458;28;20195;-81
2022/01/07 03:47:50;;;;;;;9.82;7.57;;;;;;;;;;5015937;28;20219;-81
2022/01/07 03:50:20;;;;;;;7.75;6.55;;;;;;;;;;5016273;28;20260;-81
2022/01/07 03:52:50;;;;;;;10.20;6.32;;;;;;;;;;5015429;28;20207;-79
2022/01/07 03:55:21;;;;;;;8.52;6.78;;;;;;;;;;5015447;28;20205;-80
2022/01/07 03:57:49;;;;;;;7.32;5.72;;;;;;;;;;5016219;28;20234;-81
2022/01/07 04:00:22;;;;;;;11.63;7.07;;;;;;;;;;5015483;28;20709;-81
2022/01/07 04:02:51;;;;;;;6.75;4.97;;;;;;;;;;5014935;28;20188;-81
2022/01/07 04:05:21;;;;;;;13.07;5.53;;;;;;;;;;5015894;28;20203;-81
2022/01/07 04:07:48;;;;;;;9.48;7.03;;;;;;;;;;5016171;28;20215;-81
2022/01/07 04:10:16;;;;;;;8.82;5.57;;;;;;;;;;5016064;28;20187;-81
2022/01/07 04:12:43;;;;;;;6.88;5.32;;;;;;;;;;5015541;28;20234;-81
2022/01/07 04:15:11;;;;;;;6.22;5.00;;;;;;;;;;5015576;28;20226;-80
2022/01/07 04:17:42;;;;;;;10.10;6.72;;;;;;;;;;5015715;28;20611;-80
2022/01/07 04:20:13;;;;;;;10.57;5.70;;;;;;;;;;5015591;28;20219;-80
2022/01/07 04:22:40;;;;;;;8.07;5.30;;;;;;;;;;5015641;28;20184;-81
2022/01/07 04:25:13;;;;;;;6.95;5.25;;;;;;;;;;5015228;28;20253;-81
2022/01/07 04:27:40;;;;;;;9.95;5.63;;;;;;;;;;5015162;28;20266;-81
2022/01/07 04:30:08;;;;;;;7.38;4.97;;;;;;;;;;5015723;28;20210;-81
2022/01/07 04:32:37;;;;;;;7.55;5.68;;;;;;;;;;5015096;28;20191;-82
2022/01/07 04:35:33;;;;;;;10.10;5.78;;;;;;;;;;5016359;28;20213;-80
2022/01/07 04:48:43;;;;;;;5.22;4.72;;;;;;;;;;5563354;22;20313;-81
2022/01/07 04:51:11;;;;;;;5.93;4.70;;;;;;;;;;5014308;28;20782;-81
2022/01/07 04:53:39;;;;;;;5.50;4.95;;;;;;;;;;5014910;28;20765;-81
2022/01/07 04:56:06;;;;;;;13.73;7.47;;;;;;;;;;5014036;28;20218;-80
2022/01/07 04:58:34;;;;;;;6.28;5.40;;;;;;;;;;4995196;28;20223;-80
2022/01/07 05:01:02;;;;;;;6.88;6.18;;;;;;;;;;4994633;28;20234;-80
2022/01/07 05:03:29;;;;;;;6.32;4.60;;;;;;;;;;4995048;28;20584;-80
2022/01/07 05:06:09;;;;;;;5.78;5.18;;;;;;;;;;4994703;28;20226;-80
2022/01/07 05:08:38;;;;;;;5.75;4.97;;;;;;;;;;4994986;28;20191;-79
2022/01/07 05:11:06;;;;;;;5.88;5.28;;;;;;;;;;4994809;28;20192;-80
2022/01/07 05:13:33;;;;;;;7.28;5.18;;;;;;;;;;4994691;28;20200;-79
2022/01/07 05:16:01;;;;;;;7.53;6.07;;;;;;;;;;4993679;28;20207;-78
2022/01/07 05:18:28;;;;;;;7.57;5.30;;;;;;;;;;4993367;28;20223;-79
2022/01/07 05:20:55;;;;;;;6.20;5.28;;;;;;;;;;4993361;28;20224;-80
2022/01/07 05:23:23;;;;;;;7.00;5.50;;;;;;;;;;4993677;28;20283;-79
2022/01/07 05:25:52;;;;;;;6.00;4.90;;;;;;;;;;4993527;28;20255;-79
2022/01/07 05:28:20;;;;;;;6.15;5.57;;;;;;;;;;4994385;28;20226;-79
2022/01/07 05:30:47;;;;;;;5.97;5.38;;;;;;;;;;4993189;28;20686;-79
2022/01/07 05:33:15;;;;;;;7.90;5.38;;;;;;;;;;4994185;28;20203;-80
2022/01/07 05:35:42;;;;;;;4.53;4.13;;;;;;;;;;4993451;28;20679;-79
2022/01/07 05:38:09;;;;;;;5.10;4.45;;;;;;;;;;4994230;28;20238;-79
2022/01/07 05:40:37;;;;;;;6.25;4.50;;;;;;;;;;4992888;28;20228;-79
2022/01/07 05:43:06;;;;;;;9.52;4.97;;;;;;;;;;4993660;28;20200;-80
2022/01/07 05:45:33;;;;;;;5.72;4.75;;;;;;;;;;4974240;28;20191;-80
2022/01/07 05:48:00;;;;;;;6.30;5.32;;;;;;;;;;4987923;28;20735;-79
2022/01/07 05:50:29;;;;;;;4.68;4.15;;;;;;;;;;4993070;28;20230;-81
2022/01/07 05:52:56;;;;;;;5.65;4.78;;;;;;;;;;4993681;28;20200;-80
2022/01/07 05:55:24;;;;;;;5.88;4.55;;;;;;;;;;4994142;28;20200;-80
2022/01/07 05:57:51;;;;;;;4.60;4.05;;;;;;;;;;4993491;28;20212;-80
2022/01/07 06:00:20;;;;;;;7.13;5.10;;;;;;;;;;4992914;28;20203;-80
2022/01/07 06:02:48;;;;;;;6.03;4.68;;;;;;;;;;4993872;28;20191;-80
2022/01/07 06:05:15;;;;;;;5.03;4.50;;;;;;;;;;4993542;28;20203;-80
2022/01/07 06:07:43;;;;;;;5.05;4.55;;;;;;;;;;4994792;28;20234;-80
2022/01/07 06:10:11;;;;;;;4.35;3.95;;;;;;;;;;4994859;28;20199;-80
2022/01/07 06:12:38;;;;;;;8.85;4.80;;;;;;;;;;4993597;28;20204;-80
2022/01/07 06:15:07;;;;;;;7.65;6.13;;;;;;;;;;4994720;28;20187;-81
2022/01/07 06:17:37;;;;;;;8.23;5.13;;;;;;;;;;4993533;28;20216;-81
2022/01/07 06:20:05;;;;;;;11.05;5.07;;;;;;;;;;4994439;28;20195;-81
2022/01/07 06:22:34;;;;;;;7.40;4.85;;;;;;;;;;4993469;28;20230;-81
2022/01/07 06:25:02;;;;;;;4.97;4.47;;;;;;;;;;4993566;28;20230;-80
2022/01/07 06:27:29;;;;;;;7.43;4.90;;;;;;;;;;4992789;28;20220;-80
2022/01/07 06:29:57;;;;;;;9.18;5.28;;;;;;;;;;4997118;28;20192;-79
2022/01/07 06:32:25;;;;;;;6.43;4.93;;;;;;;;;;4996859;28;20231;-79
2022/01/07 06:34:54;;;;;;;8.40;5.97;;;;;;;;;;4996883;28;20180;-80
2022/01/07 06:37:22;;;;;;;6.32;4.80;;;;;;;;;;4997352;28;20232;-80
2022/01/07 06:39:49;;;;;;;8.38;5.53;;;;;;;;;;4997466;28;20565;-80
2022/01/07 06:42:19;;;;;;;7.07;5.88;;;;;;;;;;4996739;28;20215;-81
2022/01/07 06:44:46;;;;;;;8.82;5.63;;;;;;;;;;4996694;28;20207;-80
2022/01/07 06:47:14;;;;;;;6.20;4.43;;;;;;;;;;4997370;28;20227;-79
2022/01/07 06:49:41;;;;;;;8.63;5.28;;;;;;;;;;4996464;28;20246;-79
2022/01/07 06:52:10;;;;;;;7.53;5.22;;;;;;;;;;4996983;28;20210;-80
2022/01/07 06:54:38;;;;;;;6.13;4.68;;;;;;;;;;4996749;28;20218;-81
2022/01/07 06:57:06;;;;;;;5.25;4.72;;;;;;;;;;4997247;28;20224;-80
2022/01/07 06:59:33;;;;;;;5.07;4.55;;;;;;;;;;4997225;28;20184;-80
2022/01/07 07:02:01;;;;;;;6.45;4.80;;;;;;;;;;4996774;28;20234;-80
2022/01/07 07:04:29;;;;;;;5.85;4.30;;;;;;;;;;4996585;28;20568;-79
2022/01/07 07:06:57;;;;;;;4.97;3.40;;;;;;;;;;4996696;28;20224;-80
2022/01/07 07:09:26;;;;;;;10.48;5.13;;;;;;;;;;4997086;28;20234;-80
2022/01/07 07:11:53;;;;;;;4.65;3.97;;;;;;;;;;4996775;28;20722;-80
2022/01/07 07:14:20;;;;;;;10.40;4.93;;;;;;;;;;4996861;28;20203;-80
2022/01/07 07:16:48;;;;;;;4.88;4.15;;;;;;;;;;4996254;28;20224;-79
2022/01/07 07:19:15;;;;;;;5.25;4.60;;;;;;;;;;4996356;28;20188;-80
2022/01/07 07:21:43;;;;;;;6.43;4.50;;;;;;;;;;4996059;28;20220;-79
2022/01/07 07:24:13;;;;;;;4.63;4.15;;;;;;;;;;4996468;28;20180;-80
2022/01/07 07:26:42;;;;;;;4.88;4.43;;;;;;;;;;4992566;28;20231;-80
2022/01/07 07:29:09;;;;;;;6.18;4.97;;;;;;;;;;4996482;28;20204;-80
2022/01/07 07:31:39;;;;;;;6.82;5.15;;;;;;;;;;4996110;28;20195;-80
2022/01/07 07:34:31;;;;;;;5.43;4.93;;;;;;;;;;4996384;28;20278;-80
2022/01/07 07:36:58;;;;;;;5.43;4.25;;;;;;;;;;4995825;28;20226;-80
2022/01/07 07:39:26;;;;;;;5.78;4.68;;;;;;;;;;4994984;28;20673;-79
2022/01/07 07:41:55;;;;;;;5.95;4.65;;;;;;;;;;4995769;28;20208;-79
2022/01/07 07:44:22;;;;;;;5.63;4.20;;;;;;;;;;4996456;28;20241;-80
2022/01/07 07:46:51;;;;;;;6.03;4.32;;;;;;;;;;4996072;28;20231;-79
2022/01/07 07:49:19;;;;;;;4.95;4.28;;;;;;;;;;4995703;28;20246;-79
2022/01/07 07:51:47;;;;;;;5.22;4.72;;;;;;;;;;4995960;28;20188;-81
2022/01/07 07:54:15;;;;;;;10.40;5.03;;;;;;;;;;4995779;28;20242;-80
2022/01/07 07:56:42;;;;;;;9.10;5.10;;;;;;;;;;4995677;28;20246;-80
2022/01/07 07:59:11;;;;;;;5.07;4.13;;;;;;;;;;4995697;28;20211;-80
2022/01/07 08:01:38;;;;;;;5.55;4.90;;;;;;;;;;4995579;28;20215;-80
2022/01/07 08:04:07;;;;;;;8.38;4.30;;;;;;;;;;4995777;28;20268;-79
2022/01/07 08:06:34;;;;;;;4.18;3.47;;;;;;;;;;4995079;28;20231;-78
2022/01/07 08:09:03;;;;;;;5.45;4.55;;;;;;;;;;4995817;28;20184;-79
2022/01/07 08:11:33;;;;;;;6.70;3.95;;;;;;;;;;4995064;28;20638;-79
2022/01/07 08:16:47;;;;;;;5.40;3.30;;;;;;;;;;4995146;28;20274;-79
2022/01/07 08:19:14;;;;;;;4.40;4.00;;;;;;;;;;4995399;28;20195;-80
2022/01/07 08:21:42;;;;;;;4.97;3.95;;;;;;;;;;4994349;28;20204;-81
2022/01/07 08:24:09;;;;;;;5.18;3.45;;;;;;;;;;4995184;28;20207;-80
2022/01/07 08:26:37;;;;;;;4.40;4.00;;;;;;;;;;4995582;28;20223;-80
2022/01/07 08:29:07;;;;;;;4.60;3.78;;;;;;;;;;4995188;28;20230;-80
2022/01/07 08:37:06;;;;;;;6.68;4.43;;;;;;;;;;4975261;28;20226;-79
2022/01/07 08:39:33;;;;;;;4.15;3.72;;;;;;;;;;4983247;28;20200;-80
2022/01/07 08:42:01;;;;;;;4.22;3.78;;;;;;;;;;4994875;28;20216;-80
2022/01/07 08:44:28;;;;;;;5.97;4.70;;;;;;;;;;4994118;28;20196;-79
2022/01/07 08:46:56;;;;;;;5.32;3.90;;;;;;;;;;4993673;28;20227;-80
2022/01/07 08:49:24;;;;;;;5.07;4.57;;;;;;;;;;4993391;28;20242;-81
2022/01/07 08:51:52;;;;;;;4.35;4.00;;;;;;;;;;4993787;28;20192;-79
2022/01/07 08:54:21;;;;;;;4.30;3.60;;;;;;;;;;4994067;28;20219;-80
2022/01/07 08:56:48;;;;;;;3.80;3.47;;;;;;;;;;4978037;28;20231;-80
2022/01/07 08:59:15;;;;;;;4.35;3.92;;;;;;;;;;4994054;28;20203;-80
2022/01/07 09:01:43;;;;;;;6.97;4.13;;;;;;;;;;4993884;28;20227;-80
2022/01/07 09:04:10;;;;;;;5.60;4.25;;;;;;;;;;4994858;28;20220;-81
2022/01/07 09:06:39;;;;;;;3.70;3.40;;;;;;;;;;4994177;28;20236;-80
2022/01/07 09:09:07;;;;;;;3.55;3.22;;;;;;;;;;4994032;28;20290;-80
2022/01/07 09:11:34;;;;;;;3.17;2.90;;;;;;;;;;4994431;28;20199;-81
2022/01/07 09:14:02;;;;;;;3.85;3.45;;;;;;;;;;4994218;28;20199;-80
2022/01/07 09:16:29;;;;;;;3.35;2.70;;;;;;;;;;4993808;28;20289;-81
2022/01/07 09:18:57;;;;;;;3.47;3.17;;;;;;;;;;4994092;28;20207;-80
2022/01/07 09:21:24;;;;;;;4.75;4.32;;;;;;;;;;4993450;28;20199;-79
2022/01/07 09:23:53;;;;;;;4.80;3.13;;;;;;;;;;4994012;28;20215;-79
2022/01/07 09:26:21;;;;;;;4.93;4.40;;;;;;;;;;4993334;28;20207;-78
2022/01/07 09:28:48;;;;;;;6.72;3.58;;;;;;;;;;4993319;28;20262;-78
2022/01/07 09:31:17;;;;;;;5.32;3.67;;;;;;;;;;4993118;28;20199;-79
2022/01/07 09:33:45;;;;;;;3.13;2.92;;;;;;;;;;4993457;28;20227;-78
2022/01/07 09:36:13;;;;;;;3.85;3.42;;;;;;;;;;4993846;28;20192;-80
2022/01/07 09:38:40;;;;;;;4.05;3.65;;;;;;;;;;4994228;28;20207;-81
2022/01/07 09:41:09;;;;;;;2.80;2.60;;;;;;;;;;4994188;28;20209;-79
2022/01/07 09:43:37;;;;;;;3.40;3.13;;;;;;;;;;4993104;28;20200;-80
2022/01/07 09:46:04;;;;;;;4.53;3.50;;;;;;;;;;4993869;28;20215;-80
2022/01/07 09:48:31;;;;;;;3.58;3.25;;;;;;;;;;4993692;28;20243;-80
2022/01/07 09:50:59;;;;;;;5.32;3.13;;;;;;;;;;4993475;28;20207;-79
2022/01/07 09:53:26;;;;;;;3.45;3.15;;;;;;;;;;4994311;28;20718;-81
2022/01/07 09:55:54;;;;;;;2.53;2.35;;;;;;;;;;4993913;28;20203;-82
2022/01/07 09:58:23;;;;;;;3.97;2.78;;;;;;;;;;4994051;28;20234;-80
2022/01/07 10:00:50;;;;;;;3.83;3.45;;;;;;;;;;4993728;28;20203;-79
2022/01/07 10:03:19;;;;;;;3.28;2.95;;;;;;;;;;4995183;28;20305;-80
2022/01/07 10:05:49;;;;;;;2.55;2.35;;;;;;;;;;4998184;28;20195;-81
2022/01/07 10:08:23;;;;;;;2.58;2.38;;;;;;;;;;4997944;28;20282;-81
2022/01/07 10:11:14;;;;;;;3.13;2.88;;;;;;;;;;4997888;28;20219;-80
2022/01/07 10:13:44;;;;;;;3.28;2.50;;;;;;;;;;4998349;28;20184;-80
2022/01/07 10:16:20;;;;;;;3.17;2.53;;;;;;;;;;4997730;28;20180;-80
2022/01/07 10:18:49;;;;;;;3.28;2.92;;;;;;;;;;4997555;28;20198;-80
2022/01/07 10:21:18;;;;;;;3.58;3.28;;;;;;;;;;4997899;28;20188;-80
2022/01/07 10:23:46;;;;;;;2.72;2.53;;;;;;;;;;4997728;28;20204;-80
2022/01/07 10:26:19;;;;;;;3.28;2.97;;;;;;;;;;4996956;28;20195;-80
2022/01/07 10:28:49;;;;;;;3.03;2.83;;;;;;;;;;4997594;28;20188;-80
2022/01/07 10:31:22;;;;;;;3.47;2.60;;;;;;;;;;4997577;28;20188;-80
2022/01/07 10:33:50;;;;;;;4.18;2.70;;;;;;;;;;4997336;28;20196;-80
2022/01/07 10:36:22;;;;;;;3.58;2.35;;;;;;;;;;4997564;28;20192;-80
2022/01/07 10:38:53;;;;;;;3.45;2.65;;;;;;;;;;4997424;28;20188;-80
2022/01/07 10:41:22;;;;;;;2.70;2.50;;;;;;;;;;4997014;28;20715;-80
2022/01/07 10:44:02;;;;;;;3.05;2.75;;;;;;;;;;4997202;28;20216;-80
2022/01/07 10:46:31;;;;;;;3.22;2.95;;;;;;;;;;4996771;28;20235;-80
2022/01/07 10:49:00;;;;;;;2.83;2.58;;;;;;;;;;4996789;28;20283;-80
2022/01/07 10:51:31;;;;;;;3.33;3.03;;;;;;;;;;4997009;28;20204;-81
2022/01/07 10:54:00;;;;;;;3.25;3.05;;;;;;;;;;4996592;28;20203;-80
2022/01/07 10:56:37;;;;;;;2.92;2.42;;;;;;;;;;4997166;28;20192;-80
2022/01/07 10:59:08;;;;;;;3.15;2.88;;;;;;;;;;4997231;28;20243;-80
2022/01/07 11:01:44;;;;;;;2.78;2.58;;;;;;;;;;4996940;28;20203;-80
2022/01/07 11:04:17;;;;;;;2.17;1.98;;;;;;;;;;4996613;28;20223;-80
2022/01/07 11:06:46;;;;;;;2.60;2.40;;;;;;;;;;4996864;28;20235;-79
2022/01/07 11:09:16;;;;;;;2.40;2.20;;;;;;;;;;4996793;28;20214;-80
2022/01/07 11:11:52;;;;;;;3.33;3.03;;;;;;;;;;4996867;28;20203;-80
2022/01/07 11:14:24;;;;;;;2.13;1.95;;;;;;;;;;4995861;28;20206;-79
2022/01/07 11:16:52;;;;;;;2.50;2.30;;;;;;;;;;4996328;28;20262;-80
2022/01/07 11:19:22;;;;;;;2.15;2.05;;;;;;;;;;4997161;28;20207;-79
2022/01/07 11:21:52;;;;;;;2.55;2.35;;;;;;;;;;4996735;28;20204;-81
2022/01/07 11:24:42;;;;;;;2.80;2.60;;;;;;;;;;4997064;28;20223;-79
2022/01/07 11:27:12;;;;;;;2.42;2.25;;;;;;;;;;4996505;28;20223;-80
2022/01/07 11:29:51;;;;;;;3.40;2.67;;;;;;;;;;4998365;28;20188;-80
2022/01/07 11:32:35;;;;;;;2.40;2.20;;;;;;;;;;4998172;28;20258;-80
2022/01/07 11:35:41;;;;;;;3.35;3.05;;;;;;;;;;4998374;28;20290;-81
2022/01/07 11:38:36;;;;;;;2.60;2.40;;;;;;;;;;4998336;28;20230;-80
2022/01/07 11:41:11;;;;;;;2.45;2.25;;;;;;;;;;4998429;28;20207;-80
2022/01/07 11:43:42;;;;;;;2.47;2.25;;;;;;;;;;4998063;28;20207;-80
2022/01/07 11:46:27;;;;;;;2.65;2.42;;;;;;;;;;4998669;28;20203;-80
2022/01/07 11:48:56;;;;;;;2.40;2.20;;;;;;;;;;4998394;28;20235;-80
2022/01/07 11:51:24;;;;;;;2.00;1.90;;;;;;;;;;4998189;28;20199;-81
2022/01/07 11:54:09;;;;;;;2.10;2.00;;;;;;;;;;4997972;28;20200;-81
2022/01/07 11:56:38;;;;;;;2.30;2.17;;;;;;;;;;4997577;28;20255;-80
2022/01/07 11:59:23;;;;;;;2.95;2.75;;;;;;;;;;4997226;28;20553;-80
2022/01/07 12:02:06;;;;;;;3.25;2.92;;;;;;;;;;4997224;28;20199;-81
2022/01/07 12:04:35;;;;;;;2.45;2.25;;;;;;;;;;4998747;28;20219;-82
2022/01/07 12:07:08;;;;;;;2.88;2.67;;;;;;;;;;4997824;28;20223;-81
2022/01/07 12:09:42;;;;;;;2.70;2.50;;;;;;;;;;4998379;28;20208;-81
2022/01/07 12:12:13;;;;;;;2.50;2.30;;;;;;;;;;4998363;28;20209;-81
2022/01/07 12:14:45;;;;;;;2.83;2.63;;;;;;;;;;4998314;28;20258;-81
2022/01/07 12:17:17;;;;;;;2.90;2.70;;;;;;;;;;4998152;28;20224;-81
2022/01/07 12:20:43;;;;;;;3.95;3.65;;;;;;;;;;4997780;28;20203;-81
2022/01/07 12:23:10;;;;;;;4.10;3.63;;;;;;;;;;4998043;28;20200;-81
2022/01/07 12:25:38;;;;;;;5.22;4.22;;;;;;;;;;4996912;28;20318;-81
2022/01/07 12:28:08;;;;;;;4.15;3.75;;;;;;;;;;4997643;28;20251;-81
2022/01/07 12:30:36;;;;;;;4.65;4.20;;;;;;;;;;4996973;28;20207;-81
2022/01/07 12:33:09;;;;;;;4.00;3.33;;;;;;;;;;4997583;28;20586;-81
2022/01/07 12:35:37;;;;;;;5.68;5.18;;;;;;;;;;4997281;28;20236;-81
2022/01/07 12:38:19;;;;;;;5.00;4.47;;;;;;;;;;4997373;28;20227;-81
2022/01/07 12:40:55;;;;;;;3.63;3.33;;;;;;;;;;4997228;28;20226;-81
2022/01/07 12:43:23;;;;;;;4.18;3.78;;;;;;;;;;4997485;28;20214;-81
2022/01/07 12:46:00;;;;;;;4.22;3.67;;;;;;;;;;4997690;28;20227;-81
2022/01/07 12:48:41;;;;;;;4.07;3.67;;;;;;;;;;4997197;28;20238;-81
2022/01/07 12:51:09;;;;;;;3.65;3.35;;;;;;;;;;4997466;28;20203;-81
2022/01/07 12:53:36;;;;;;;5.72;3.95;;;;;;;;;;4997139;28;20214;-80
2022/01/07 12:56:25;;;;;;;3.35;3.15;;;;;;;;;;4997371;28;20199;-81
2022/01/07 12:58:52;;;;;;;2.70;2.50;;;;;;;;;;4997365;28;20214;-81
2022/01/07 13:01:25;;;;;;;3.13;2.85;;;;;;;;;;4997169;28;20200;-81
2022/01/07 13:04:06;;;;;;;4.15;3.75;;;;;;;;;;4998130;28;20211;-81
2022/01/07 13:06:43;;;;;;;2.30;2.10;;;;;;;;;;4996828;28;20239;-81
2022/01/07 13:09:12;;;;;;;3.67;2.78;;;;;;;;;;4997226;28;20210;-81
2022/01/07 13:11:39;;;;;;;2.17;2.08;;;;;;;;;;4996697;28;20218;-81
2022/01/07 13:14:10;;;;;;;2.60;2.40;;;;;;;;;;4997242;28;20204;-81
2022/01/07 13:16:38;;;;;;;3.15;2.85;;;;;;;;;;4997014;28;20236;-81
2022/01/07 13:19:09;;;;;;;2.78;2.58;;;;;;;;;;5005895;28;20192;-80
2022/01/07 13:21:38;;;;;;;3.25;2.40;;;;;;;;;;5007789;28;20200;-80
2022/01/07 13:24:07;;;;;;;2.78;2.58;;;;;;;;;;5007061;28;20207;-79
2022/01/07 13:26:38;;;;;;;2.72;2.53;;;;;;;;;;5007216;28;20235;-80
2022/01/07 13:29:19;;;;;;;3.50;3.20;;;;;;;;;;5008084;28;20207;-80
2022/01/07 13:31:48;;;;;;;3.80;2.88;;;;;;;;;;5006344;28;20211;-80
2022/01/07 13:34:24;;;;;;;2.88;2.60;;;;;;;;;;5007404;28;20231;-81
2022/01/07 13:37:00;;;;;;;3.30;2.50;;;;;;;;;;5006200;28;20230;-81
2022/01/07 13:39:27;;;;;;;2.47;2.28;;;;;;;;;;5004418;28;20671;-80
2022/01/07 13:41:57;;;;;;;2.88;2.60;;;;;;;;;;5000100;28;20587;-80
2022/01/07 13:44:26;;;;;;;3.38;3.08;;;;;;;;;;4998267;28;20203;-80
2022/01/07 13:46:56;;;;;;;3.72;3.42;;;;;;;;;;4993435;28;20618;-80
2022/01/07 13:49:25;;;;;;;3.83;3.53;;;;;;;;;;5006710;28;20241;-81
2022/01/07 13:51:57;;;;;;;3.47;3.22;;;;;;;;;;4998501;28;20206;-80
2022/01/07 13:54:33;;;;;;;3.33;3.03;;;;;;;;;;4995798;28;20259;-81
2022/01/07 13:57:04;;;;;;;3.88;3.35;;;;;;;;;;4993512;28;20230;-81
2022/01/07 13:59:43;;;;;;;4.20;3.88;;;;;;;;;;4992701;28;20204;-80
2022/01/07 14:02:15;;;;;;;4.45;3.58;;;;;;;;;;4992991;28;20242;-81
2022/01/07 14:04:49;;;;;;;3.38;3.08;;;;;;;;;;4992767;28;20203;-80
2022/01/07 14:07:33;;;;;;;3.65;3.35;;;;;;;;;;4992441;28;20237;-80
2022/01/07 14:10:14;;;;;;;3.90;3.60;;;;;;;;;;4992944;28;20184;-81
2022/01/07 14:12:52;;;;;;;4.00;3.60;;;;;;;;;;4993002;28;20303;-80
2022/01/07 14:15:22;;;;;;;5.10;4.60;;;;;;;;;;4992822;28;20203;-81
2022/01/07 14:17:50;;;;;;;3.92;3.22;;;;;;;;;;4992396;28;20720;-81
2022/01/07 14:20:19;;;;;;;3.60;3.30;;;;;;;;;;4992526;28;20204;-80
2022/01/07 14:22:47;;;;;;;4.28;3.92;;;;;;;;;;4992596;28;20595;-81
2022/01/07 14:25:17;;;;;;;3.75;3.45;;;;;;;;;;4992417;28;20210;-80
2022/01/07 14:27:46;;;;;;;3.00;2.80;;;;;;;;;;4992355;28;20224;-80
2022/01/07 14:30:17;;;;;;;3.42;3.10;;;;;;;;;;4992797;28;20199;-80
2022/01/07 14:32:45;;;;;;;3.60;3.25;;;;;;;;;;4992707;28;20204;-80
2022/01/07 14:35:13;;;;;;;3.42;3.22;;;;;;;;;;4992703;28;20200;-81
2022/01/07 14:37:42;;;;;;;3.42;3.13;;;;;;;;;;4992445;28;20242;-81
2022/01/07 14:40:11;;;;;;;3.97;3.63;;;;;;;;;;4992351;28;20210;-81
2022/01/07 14:42:38;;;;;;;3.30;3.03;;;;;;;;;;4992451;28;20211;-80
2022/01/07 14:45:07;;;;;;;3.03;2.83;;;;;;;;;;4992460;28;20233;-80
2022/01/07 14:47:34;;;;;;;4.15;3.85;;;;;;;;;;4992617;28;20235;-81
2022/01/07 14:50:02;;;;;;;4.20;3.80;;;;;;;;;;4994862;28;20232;-81
2022/01/07 14:52:30;;;;;;;3.53;3.22;;;;;;;;;;4996312;28;20234;-81
2022/01/07 14:54:58;;;;;;;3.42;3.15;;;;;;;;;;4995927;28;20590;-81
2022/01/07 14:57:26;;;;;;;4.00;3.70;;;;;;;;;;4995893;28;20719;-81
2022/01/07 14:59:54;;;;;;;3.08;2.88;;;;;;;;;;4996083;28;20687;-80
2022/01/07 15:02:21;;;;;;;3.58;3.28;;;;;;;;;;4996512;28;20214;-80
2022/01/07 15:04:48;;;;;;;2.80;2.60;;;;;;;;;;4996573;28;20211;-80
2022/01/07 15:07:16;;;;;;;3.17;2.88;;;;;;;;;;4995696;28;20594;-80
2022/01/07 15:09:44;;;;;;;4.03;3.63;;;;;;;;;;4996291;28;20210;-80
2022/01/07 15:12:12;;;;;;;3.03;2.83;;;;;;;;;;4996357;28;20214;-80
2022/01/07 15:14:40;;;;;;;4.40;3.67;;;;;;;;;;4996080;28;20204;-80
2022/01/07 15:17:08;;;;;;;3.40;3.15;;;;;;;;;;4996088;28;20228;-80
2022/01/07 15:19:35;;;;;;;4.05;3.75;;;;;;;;;;4996414;28;20203;-80
2022/01/07 15:22:05;;;;;;;3.95;3.55;;;;;;;;;;4996352;28;20206;-83